sensor_id;sensor_type;location;lat;lon;timestamp;pressure;altitude;pressure_sealevel;temperature;humidity
50790;BME280;37287;47.554;7.844;2022-10-19T00:01:14;98705.09;;;11.26;100.00
50790;BME280;37287;47.554;7.844;2022-10-19T00:03:52;98702.66;;;11.21;100.00
50790;BME280;37287;47.554;7.844;2022-10-19T00:06:26;98701.47;;;11.18;100.00
50790;BME280;37287;47.554;7.844;2022-10-19T00:08:57;98696.41;;;11.17;100.00
50790;BME280;37287;47.554;7.844;2022-10-19T00:11:27;98695.19;;;11.14;100.00
50790;BME280;37287;47.554;7.844;2022-10-19T00:13:55;98693.97;;;11.12;100.00
50790;BME280;37287;47.554;7.844;2022-10-19T00:16:27;98695.13;;;11.11;100.00
50790;BME280;37287;47.554;7.844;2022-10-19T00:18:58;98697.78;;;11.07;100.00
50790;BME280;37287;47.554;7.844;2022-10-19T00:21:26;98693.91;;;11.08;100.00
50790;BME280;37287;47.554;7.844;2022-10-19T00:23:52;98688.06;;;11.06;100.00
50790;BME280;37287;47.554;7.844;2022-10-19T00:26:19;98692.78;;;11.09;100.00
50790;BME280;37287;47.554;7.844;2022-10-19T00:28:46;98698.97;;;11.10;100.00
50790;BME280;37287;47.554;7.844;2022-10-19T00:31:15;98687.78;;;11.11;100.00
50790;BME280;37287;47.554;7.844;2022-10-19T00:33:45;98693.22;;;11.11;100.00
50790;BME280;37287;47.554;7.844;2022-10-19T00:36:23;98687.06;;;11.14;100.00
50790;BME280;37287;47.554;7.844;2022-10-19T00:38:53;98689.78;;;11.14;100.00
50790;BME280;37287;47.554;7.844;2022-10-19T00:41:29;98684.75;;;11.16;100.00
50790;BME280;37287;47.554;7.844;2022-10-19T00:46:44;98684.41;;;11.18;100.00
50790;BME280;37287;47.554;7.844;2022-10-19T00:51:50;98682.50;;;11.18;100.00
50790;BME280;37287;47.554;7.844;2022-10-19T00:54:20;98689.47;;;11.19;100.00
50790;BME280;37287;47.554;7.844;2022-10-19T00:56:52;98681.03;;;11.25;100.00
50790;BME280;37287;47.554;7.844;2022-10-19T00:59:21;98687.19;;;11.22;100.00
50790;BME280;37287;47.554;7.844;2022-10-19T01:01:51;98673.69;;;11.25;100.00
50790;BME280;37287;47.554;7.844;2022-10-19T01:04:21;98674.91;;;11.28;100.00
50790;BME280;37287;47.554;7.844;2022-10-19T01:06:50;98666.03;;;11.31;100.00
50790;BME280;37287;47.554;7.844;2022-10-19T01:09:17;98668.06;;;11.34;100.00
50790;BME280;37287;47.554;7.844;2022-10-19T01:12:09;98676.22;;;11.38;100.00
50790;BME280;37287;47.554;7.844;2022-10-19T01:14:57;98673.53;;;11.38;100.00
50790;BME280;37287;47.554;7.844;2022-10-19T01:22:54;98685.69;;;11.47;100.00
50790;BME280;37287;47.554;7.844;2022-10-19T01:41:18;98668.94;;;11.65;100.00
50790;BME280;37287;47.554;7.844;2022-10-19T01:46:37;98678.97;;;11.61;100.00
50790;BME280;37287;47.554;7.844;2022-10-19T01:51:53;98678.13;;;11.57;100.00
50790;BME280;37287;47.554;7.844;2022-10-19T01:54:22;98670.34;;;11.55;100.00
50790;BME280;37287;47.554;7.844;2022-10-19T01:56:53;98674.25;;;11.58;100.00
50790;BME280;37287;47.554;7.844;2022-10-19T01:59:27;98675.09;;;11.62;100.00
50790;BME280;37287;47.554;7.844;2022-10-19T02:01:56;98667.69;;;11.59;100.00
50790;BME280;37287;47.554;7.844;2022-10-19T02:04:23;98670.81;;;11.61;100.00
50790;BME280;37287;47.554;7.844;2022-10-19T02:06:57;98670.03;;;11.60;100.00
50790;BME280;37287;47.554;7.844;2022-10-19T02:09:24;98668.13;;;11.61;100.00
50790;BME280;37287;47.554;7.844;2022-10-19T02:11:54;98661.53;;;11.62;100.00
50790;BME280;37287;47.554;7.844;2022-10-19T02:14:29;98656.09;;;11.62;100.00
50790;BME280;37287;47.554;7.844;2022-10-19T02:17:21;98654.97;;;11.63;100.00
50790;BME280;37287;47.554;7.844;2022-10-19T02:19:51;98651.84;;;11.61;100.00
50790;BME280;37287;47.554;7.844;2022-10-19T02:22:21;98651.84;;;11.61;100.00
50790;BME280;37287;47.554;7.844;2022-10-19T02:24:47;98642.13;;;11.60;100.00
50790;BME280;37287;47.554;7.844;2022-10-19T02:27:16;98644.03;;;11.59;100.00
50790;BME280;37287;47.554;7.844;2022-10-19T02:29:44;98633.56;;;11.58;100.00
50790;BME280;37287;47.554;7.844;2022-10-19T02:32:11;98634.72;;;11.57;100.00
50790;BME280;37287;47.554;7.844;2022-10-19T02:34:40;98632.44;;;11.59;100.00
50790;BME280;37287;47.554;7.844;2022-10-19T02:37:07;98620.72;;;11.55;100.00
50790;BME280;37287;47.554;7.844;2022-10-19T02:39:33;98618.03;;;11.55;100.00
50790;BME280;37287;47.554;7.844;2022-10-19T02:42:07;98611.38;;;11.52;100.00
50790;BME280;37287;47.554;7.844;2022-10-19T02:44:59;98617.63;;;11.52;100.00
50790;BME280;37287;47.554;7.844;2022-10-19T02:47:35;98616.78;;;11.48;100.00
50790;BME280;37287;47.554;7.844;2022-10-19T02:50:05;98615.63;;;11.49;100.00
50790;BME280;37287;47.554;7.844;2022-10-19T02:52:36;98609.00;;;11.47;100.00
50790;BME280;37287;47.554;7.844;2022-10-19T02:55:03;98624.47;;;11.46;100.00
50790;BME280;37287;47.554;7.844;2022-10-19T02:57:30;98621.75;;;11.46;100.00
50790;BME280;37287;47.554;7.844;2022-10-19T02:59:58;98619.78;;;11.43;100.00
50790;BME280;37287;47.554;7.844;2022-10-19T03:02:25;98618.94;;;11.39;100.00
50790;BME280;37287;47.554;7.844;2022-10-19T03:04:52;98608.78;;;11.32;100.00
50790;BME280;37287;47.554;7.844;2022-10-19T03:07:23;98614.84;;;11.26;100.00
50790;BME280;37287;47.554;7.844;2022-10-19T03:09:49;98606.25;;;11.20;100.00
50790;BME280;37287;47.554;7.844;2022-10-19T03:12:16;98610.00;;;11.15;100.00
50790;BME280;37287;47.554;7.844;2022-10-19T03:14:45;98604.19;;;11.13;100.00
50790;BME280;37287;47.554;7.844;2022-10-19T03:17:12;98613.16;;;11.17;100.00
50790;BME280;37287;47.554;7.844;2022-10-19T03:19:39;98607.78;;;11.21;100.00
50790;BME280;37287;47.554;7.844;2022-10-19T03:22:05;98607.44;;;11.23;100.00
50790;BME280;37287;47.554;7.844;2022-10-19T03:24:32;98611.78;;;11.27;100.00
50790;BME280;37287;47.554;7.844;2022-10-19T03:26:59;98608.28;;;11.27;100.00
50790;BME280;37287;47.554;7.844;2022-10-19T03:29:26;98604.00;;;11.26;100.00
50790;BME280;37287;47.554;7.844;2022-10-19T03:31:52;98602.84;;;11.27;100.00
50790;BME280;37287;47.554;7.844;2022-10-19T03:34:20;98604.78;;;11.26;100.00
50790;BME280;37287;47.554;7.844;2022-10-19T03:36:53;98606.28;;;11.24;100.00
50790;BME280;37287;47.554;7.844;2022-10-19T03:39:21;98604.78;;;11.26;100.00
50790;BME280;37287;47.554;7.844;2022-10-19T03:41:48;98601.34;;;11.29;100.00
50790;BME280;37287;47.554;7.844;2022-10-19T03:44:15;98604.50;;;11.31;100.00
50790;BME280;37287;47.554;7.844;2022-10-19T03:46:43;98606.41;;;11.31;100.00
50790;BME280;37287;47.554;7.844;2022-10-19T03:49:13;98612.63;;;11.31;100.00
50790;BME280;37287;47.554;7.844;2022-10-19T03:51:40;98606.41;;;11.31;100.00
50790;BME280;37287;47.554;7.844;2022-10-19T03:54:12;98601.41;;;11.33;100.00
50790;BME280;37287;47.554;7.844;2022-10-19T03:56:40;98599.13;;;11.35;100.00
50790;BME280;37287;47.554;7.844;2022-10-19T03:59:11;98590.81;;;11.24;100.00
50790;BME280;37287;47.554;7.844;2022-10-19T04:01:41;98598.63;;;11.29;100.00
50790;BME280;37287;47.554;7.844;2022-10-19T04:04:14;98599.00;;;11.28;100.00
50790;BME280;37287;47.554;7.844;2022-10-19T04:06:43;98600.13;;;11.27;100.00
50790;BME280;37287;47.554;7.844;2022-10-19T04:09:12;98598.16;;;11.24;100.00
50790;BME280;37287;47.554;7.844;2022-10-19T04:11:39;98597.75;;;11.22;100.00
50790;BME280;37287;47.554;7.844;2022-10-19T04:14:15;98591.13;;;11.19;100.00
50790;BME280;37287;47.554;7.844;2022-10-19T04:16:58;98591.59;;;11.25;100.00
50790;BME280;37287;47.554;7.844;2022-10-19T04:19:27;98594.59;;;11.19;100.00
50790;BME280;37287;47.554;7.844;2022-10-19T04:21:54;98589.19;;;11.19;100.00
50790;BME280;37287;47.554;7.844;2022-10-19T04:24:21;98586.91;;;11.22;100.00
50790;BME280;37287;47.554;7.844;2022-10-19T04:26:52;98591.47;;;11.17;100.00
50790;BME280;37287;47.554;7.844;2022-10-19T04:29:20;98599.84;;;11.09;100.00
50790;BME280;37287;47.554;7.844;2022-10-19T04:31:53;98598.66;;;11.06;100.00
50790;BME280;37287;47.554;7.844;2022-10-19T04:34:21;98606.78;;;11.06;100.00
50790;BME280;37287;47.554;7.844;2022-10-19T04:36:49;98599.75;;;11.01;100.00
50790;BME280;37287;47.554;7.844;2022-10-19T04:39:16;98596.94;;;10.98;100.00
50790;BME280;37287;47.554;7.844;2022-10-19T04:41:44;98593.47;;;10.97;100.00
50790;BME280;37287;47.554;7.844;2022-10-19T04:44:13;98597.97;;;10.90;100.00
50790;BME280;37287;47.554;7.844;2022-10-19T04:46:40;98585.59;;;10.89;100.00
50790;BME280;37287;47.554;7.844;2022-10-19T04:49:07;98587.13;;;10.90;100.00
50790;BME280;37287;47.554;7.844;2022-10-19T04:51:34;98587.84;;;10.87;100.00
50790;BME280;37287;47.554;7.844;2022-10-19T04:54:03;98577.00;;;10.87;100.00
50790;BME280;37287;47.554;7.844;2022-10-19T04:56:34;98583.28;;;10.91;100.00
50790;BME280;37287;47.554;7.844;2022-10-19T04:59:00;98587.97;;;10.94;100.00
50790;BME280;37287;47.554;7.844;2022-10-19T05:01:28;98582.16;;;10.92;100.00
50790;BME280;37287;47.554;7.844;2022-10-19T05:03:57;98579.81;;;10.90;100.00
50790;BME280;37287;47.554;7.844;2022-10-19T05:06:25;98579.34;;;10.88;100.00
50790;BME280;37287;47.554;7.844;2022-10-19T05:08:52;98573.53;;;10.86;100.00
50790;BME280;37287;47.554;7.844;2022-10-19T05:11:19;98571.59;;;10.87;100.00
50790;BME280;37287;47.554;7.844;2022-10-19T05:13:47;98582.03;;;10.84;100.00
50790;BME280;37287;47.554;7.844;2022-10-19T05:16:16;98567.69;;;10.84;100.00
50790;BME280;37287;47.554;7.844;2022-10-19T05:18:47;98572.91;;;10.73;100.00
50790;BME280;37287;47.554;7.844;2022-10-19T05:21:16;98577.53;;;10.73;100.00
50790;BME280;37287;47.554;7.844;2022-10-19T05:23:46;98574.41;;;10.71;100.00
50790;BME280;37287;47.554;7.844;2022-10-19T05:26:17;98577.03;;;10.67;100.00
50790;BME280;37287;47.554;7.844;2022-10-19T05:28:55;98564.59;;;10.62;100.00
50790;BME280;37287;47.554;7.844;2022-10-19T05:31:27;98575.00;;;10.60;100.00
50790;BME280;37287;47.554;7.844;2022-10-19T05:33:55;98574.22;;;10.60;100.00
50790;BME280;37287;47.554;7.844;2022-10-19T05:36:26;98573.50;;;10.63;100.00
50790;BME280;37287;47.554;7.844;2022-10-19T05:38:55;98577.78;;;10.64;100.00
50790;BME280;37287;47.554;7.844;2022-10-19T05:41:26;98576.16;;;10.59;100.00
50790;BME280;37287;47.554;7.844;2022-10-19T05:44:00;98575.00;;;10.60;100.00
50790;BME280;37287;47.554;7.844;2022-10-19T05:46:28;98571.09;;;10.58;100.00
50790;BME280;37287;47.554;7.844;2022-10-19T05:48:58;98569.44;;;10.53;100.00
50790;BME280;37287;47.554;7.844;2022-10-19T05:51:27;98572.13;;;10.53;100.00
50790;BME280;37287;47.554;7.844;2022-10-19T05:53:54;98576.06;;;10.56;100.00
50790;BME280;37287;47.554;7.844;2022-10-19T05:56:24;98569.44;;;10.53;100.00
50790;BME280;37287;47.554;7.844;2022-10-19T05:58:54;98569.88;;;10.55;100.00
50790;BME280;37287;47.554;7.844;2022-10-19T06:01:21;98573.34;;;10.56;100.00
50790;BME280;37287;47.554;7.844;2022-10-19T06:03:53;98569.03;;;10.51;100.00
50790;BME280;37287;47.554;7.844;2022-10-19T06:06:20;98566.66;;;10.49;100.00
50790;BME280;37287;47.554;7.844;2022-10-19T06:08:47;98564.81;;;10.54;100.00
50790;BME280;37287;47.554;7.844;2022-10-19T06:11:20;98564.09;;;10.57;100.00
50790;BME280;37287;47.554;7.844;2022-10-19T06:13:50;98554.84;;;10.58;100.00
50790;BME280;37287;47.554;7.844;2022-10-19T06:16:17;98562.59;;;10.59;100.00
50790;BME280;37287;47.554;7.844;2022-10-19T06:18:46;98565.66;;;10.58;100.00
50790;BME280;37287;47.554;7.844;2022-10-19T06:21:20;98567.22;;;10.59;100.00
50790;BME280;37287;47.554;7.844;2022-10-19T06:23:52;98573.06;;;10.61;100.00
50790;BME280;37287;47.554;7.844;2022-10-19T06:26:21;98572.34;;;10.64;100.00
50790;BME280;37287;47.554;7.844;2022-10-19T06:28:48;98573.63;;;10.70;100.00
50790;BME280;37287;47.554;7.844;2022-10-19T06:31:15;98571.72;;;10.71;100.00
50790;BME280;37287;47.554;7.844;2022-10-19T06:33:43;98570.69;;;10.79;100.00
50790;BME280;37287;47.554;7.844;2022-10-19T06:36:17;98561.13;;;10.85;100.00
50790;BME280;37287;47.554;7.844;2022-10-19T06:38:50;98565.88;;;10.92;100.00
50790;BME280;37287;47.554;7.844;2022-10-19T06:41:19;98569.50;;;10.99;100.00
50790;BME280;37287;47.554;7.844;2022-10-19T06:43:54;98578.09;;;11.05;100.00
50790;BME280;37287;47.554;7.844;2022-10-19T06:46:26;98570.41;;;11.07;100.00
50790;BME280;37287;47.554;7.844;2022-10-19T06:48:55;98573.66;;;11.16;100.00
50790;BME280;37287;47.554;7.844;2022-10-19T06:51:23;98582.91;;;11.15;100.00
50790;BME280;37287;47.554;7.844;2022-10-19T06:53:53;98582.00;;;11.31;100.00
50790;BME280;37287;47.554;7.844;2022-10-19T06:56:24;98574.00;;;11.38;100.00
50790;BME280;37287;47.554;7.844;2022-10-19T06:58:55;98581.81;;;11.43;100.00
50790;BME280;37287;47.554;7.844;2022-10-19T07:01:27;98578.47;;;11.53;100.00
50790;BME280;37287;47.554;7.844;2022-10-19T07:03:53;98567.03;;;11.64;100.00
50790;BME280;37287;47.554;7.844;2022-10-19T07:06:21;98569.94;;;11.78;100.00
50790;BME280;37287;47.554;7.844;2022-10-19T07:08:48;98574.69;;;11.85;100.00
50790;BME280;37287;47.554;7.844;2022-10-19T07:11:18;98577.78;;;12.10;100.00
50790;BME280;37287;47.554;7.844;2022-10-19T07:13:47;98577.44;;;12.49;100.00
50790;BME280;37287;47.554;7.844;2022-10-19T07:16:16;98577.53;;;12.98;100.00
50790;BME280;37287;47.554;7.844;2022-10-19T07:18:48;98570.06;;;13.81;100.00
50790;BME280;37287;47.554;7.844;2022-10-19T07:21:15;98573.03;;;14.35;100.00
50790;BME280;37287;47.554;7.844;2022-10-19T07:23:45;98573.16;;;14.64;100.00
50790;BME280;37287;47.554;7.844;2022-10-19T07:28:43;98573.22;;;15.68;100.00
50790;BME280;37287;47.554;7.844;2022-10-19T07:31:14;98576.97;;;16.28;96.24
50790;BME280;37287;47.554;7.844;2022-10-19T07:33:43;98582.56;;;16.81;91.90
50790;BME280;37287;47.554;7.844;2022-10-19T07:36:10;98575.66;;;17.25;89.65
50790;BME280;37287;47.554;7.844;2022-10-19T07:38:40;98576.88;;;17.66;88.02
50790;BME280;37287;47.554;7.844;2022-10-19T07:41:12;98578.22;;;18.23;85.36
50790;BME280;37287;47.554;7.844;2022-10-19T07:43:40;98577.31;;;18.64;84.11
50790;BME280;37287;47.554;7.844;2022-10-19T07:46:12;98577.41;;;18.57;82.30
50790;BME280;37287;47.554;7.844;2022-10-19T07:48:39;98570.09;;;18.78;81.92
50790;BME280;37287;47.554;7.844;2022-10-19T07:51:06;98574.56;;;18.95;82.47
50790;BME280;37287;47.554;7.844;2022-10-19T07:53:36;98563.41;;;19.53;80.09
50790;BME280;37287;47.554;7.844;2022-10-19T07:56:10;98567.44;;;19.49;81.64
50790;BME280;37287;47.554;7.844;2022-10-19T07:58:38;98562.34;;;19.23;77.24
50790;BME280;37287;47.554;7.844;2022-10-19T08:01:19;98560.50;;;18.93;82.81
50790;BME280;37287;47.554;7.844;2022-10-19T08:04:09;98559.28;;;18.63;83.69
50790;BME280;37287;47.554;7.844;2022-10-19T08:06:57;98558.75;;;18.45;85.13
50790;BME280;37287;47.554;7.844;2022-10-19T08:09:26;98564.53;;;18.54;81.59
50790;BME280;37287;47.554;7.844;2022-10-19T08:12:18;98562.31;;;18.72;82.34
50790;BME280;37287;47.554;7.844;2022-10-19T08:14:45;98560.69;;;18.48;83.83
50790;BME280;37287;47.554;7.844;2022-10-19T08:17:17;98559.97;;;18.71;82.93
50790;BME280;37287;47.554;7.844;2022-10-19T08:19:44;98559.28;;;18.94;82.45
50790;BME280;37287;47.554;7.844;2022-10-19T08:22:11;98559.13;;;18.78;82.56
50790;BME280;37287;47.554;7.844;2022-10-19T08:24:39;98552.53;;;18.71;81.63
50790;BME280;37287;47.554;7.844;2022-10-19T08:27:07;98565.78;;;19.04;78.07
50790;BME280;37287;47.554;7.844;2022-10-19T08:29:33;98559.75;;;18.89;80.92
50790;BME280;37287;47.554;7.844;2022-10-19T08:32:02;98558.09;;;18.02;81.89
50790;BME280;37287;47.554;7.844;2022-10-19T08:34:29;98561.47;;;17.76;84.29
50790;BME280;37287;47.554;7.844;2022-10-19T08:36:58;98560.59;;;17.48;85.94
50790;BME280;37287;47.554;7.844;2022-10-19T08:39:51;98559.53;;;17.34;88.61
50790;BME280;37287;47.554;7.844;2022-10-19T08:42:22;98557.38;;;17.11;86.54
50790;BME280;37287;47.554;7.844;2022-10-19T08:50:26;98549.94;;;17.12;91.42
50790;BME280;37287;47.554;7.844;2022-10-19T08:53:01;98555.69;;;17.28;86.87
50790;BME280;37287;47.554;7.844;2022-10-19T08:55:39;98550.56;;;17.30;91.02
50790;BME280;37287;47.554;7.844;2022-10-19T09:01:00;98547.59;;;17.97;85.31
50790;BME280;37287;47.554;7.844;2022-10-19T09:03:53;98556.78;;;17.34;86.37
50790;BME280;37287;47.554;7.844;2022-10-19T09:06:28;98548.44;;;17.87;86.40
50790;BME280;37287;47.554;7.844;2022-10-19T09:08:57;98553.69;;;17.32;87.85
50790;BME280;37287;47.554;7.844;2022-10-19T09:11:31;98534.88;;;17.38;88.62
50790;BME280;37287;47.554;7.844;2022-10-19T09:16:44;98529.63;;;17.13;88.94
50790;BME280;37287;47.554;7.844;2022-10-19T09:19:17;98528.19;;;17.81;85.54
50790;BME280;37287;47.554;7.844;2022-10-19T09:22:07;98537.66;;;17.73;83.22
50790;BME280;37287;47.554;7.844;2022-10-19T09:24:41;98522.63;;;17.88;87.86
50790;BME280;37287;47.554;7.844;2022-10-19T09:27:15;98530.97;;;18.15;81.29
50790;BME280;37287;47.554;7.844;2022-10-19T09:29:57;98527.25;;;18.29;82.32
50790;BME280;37287;47.554;7.844;2022-10-19T09:32:30;98525.81;;;18.76;81.49
50790;BME280;37287;47.554;7.844;2022-10-19T09:35:00;98526.84;;;19.13;77.29
50790;BME280;37287;47.554;7.844;2022-10-19T09:37:29;98522.47;;;18.92;78.24
50790;BME280;37287;47.554;7.844;2022-10-19T09:39:57;98525.63;;;19.61;77.55
50790;BME280;37287;47.554;7.844;2022-10-19T09:42:28;98517.84;;;19.80;74.49
50790;BME280;37287;47.554;7.844;2022-10-19T09:44:57;98530.44;;;20.37;73.69
50790;BME280;37287;47.554;7.844;2022-10-19T09:47:41;98518.50;;;20.44;71.91
50790;BME280;37287;47.554;7.844;2022-10-19T09:50:23;98523.28;;;20.40;73.93
50790;BME280;37287;47.554;7.844;2022-10-19T09:52:57;98504.38;;;21.11;70.99
50790;BME280;37287;47.554;7.844;2022-10-19T09:58:15;98513.50;;;20.39;69.93
50790;BME280;37287;47.554;7.844;2022-10-19T10:00:51;98509.44;;;20.96;69.91
50790;BME280;37287;47.554;7.844;2022-10-19T10:03:33;98504.72;;;21.13;67.35
50790;BME280;37287;47.554;7.844;2022-10-19T10:06:08;98509.81;;;21.15;69.21
50790;BME280;37287;47.554;7.844;2022-10-19T10:08:45;98504.44;;;21.41;68.22
50790;BME280;37287;47.554;7.844;2022-10-19T10:11:23;98511.75;;;21.31;65.66
50790;BME280;37287;47.554;7.844;2022-10-19T10:13:53;98512.44;;;21.35;66.04
50790;BME280;37287;47.554;7.844;2022-10-19T10:16:22;98505.44;;;21.63;67.57
50790;BME280;37287;47.554;7.844;2022-10-19T10:21:30;98499.56;;;21.61;67.96
50790;BME280;37287;47.554;7.844;2022-10-19T10:26:44;98496.19;;;21.70;65.95
50790;BME280;37287;47.554;7.844;2022-10-19T10:29:30;98488.72;;;21.71;66.54
50790;BME280;37287;47.554;7.844;2022-10-19T10:32:04;98479.25;;;21.72;67.11
50790;BME280;37287;47.554;7.844;2022-10-19T10:34:38;98484.78;;;21.85;67.09
50790;BME280;37287;47.554;7.844;2022-10-19T10:37:37;98485.66;;;21.36;65.69
50790;BME280;37287;47.554;7.844;2022-10-19T10:40:05;98476.84;;;21.11;65.75
50790;BME280;37287;47.554;7.844;2022-10-19T10:42:39;98470.22;;;20.92;69.43
50790;BME280;37287;47.554;7.844;2022-10-19T10:45:19;98467.97;;;21.20;65.99
50790;BME280;37287;47.554;7.844;2022-10-19T10:47:48;98467.84;;;20.94;68.14
50790;BME280;37287;47.554;7.844;2022-10-19T10:53:01;98461.06;;;20.83;68.11
50790;BME280;37287;47.554;7.844;2022-10-19T10:55:30;98461.88;;;20.63;68.77
50790;BME280;37287;47.554;7.844;2022-10-19T10:58:18;98463.28;;;21.04;67.04
50790;BME280;37287;47.554;7.844;2022-10-19T11:00:53;98447.44;;;20.75;67.62
50790;BME280;37287;47.554;7.844;2022-10-19T11:03:28;98436.00;;;20.60;69.69
50790;BME280;37287;47.554;7.844;2022-10-19T11:06:07;98450.31;;;20.72;70.47
50790;BME280;37287;47.554;7.844;2022-10-19T11:11:38;98437.78;;;20.18;71.19
50790;BME280;37287;47.554;7.844;2022-10-19T11:16:51;98442.25;;;20.28;70.07
50790;BME280;37287;47.554;7.844;2022-10-19T11:19:24;98439.34;;;19.99;72.00
50790;BME280;37287;47.554;7.844;2022-10-19T11:22:23;98432.69;;;19.80;72.89
50790;BME280;37287;47.554;7.844;2022-10-19T11:25:05;98427.97;;;20.17;71.89
50790;BME280;37287;47.554;7.844;2022-10-19T11:27:51;98433.34;;;20.40;71.13
50790;BME280;37287;47.554;7.844;2022-10-19T11:30:26;98422.94;;;20.98;69.52
50790;BME280;37287;47.554;7.844;2022-10-19T11:33:06;98412.41;;;21.09;68.76
50790;BME280;37287;47.554;7.844;2022-10-19T11:35:47;98408.59;;;20.90;67.25
50790;BME280;37287;47.554;7.844;2022-10-19T11:44:14;98398.41;;;21.03;68.20
50790;BME280;37287;47.554;7.844;2022-10-19T11:51:57;98377.66;;;20.69;69.03
50790;BME280;37287;47.554;7.844;2022-10-19T11:57:11;98365.75;;;20.06;72.55
50790;BME280;37287;47.554;7.844;2022-10-19T11:59:59;98355.59;;;19.87;73.39
50790;BME280;37287;47.554;7.844;2022-10-19T12:13:27;98334.88;;;19.46;76.12
50790;BME280;37287;47.554;7.844;2022-10-19T12:15:57;98341.28;;;19.19;76.66
50790;BME280;37287;47.554;7.844;2022-10-19T12:19:04;98340.22;;;19.33;77.25
50790;BME280;37287;47.554;7.844;2022-10-19T12:21:29;98336.38;;;19.67;76.72
50790;BME280;37287;47.554;7.844;2022-10-19T12:23:57;98330.59;;;19.81;74.47
50790;BME280;37287;47.554;7.844;2022-10-19T12:26:29;98328.47;;;20.05;75.43
50790;BME280;37287;47.554;7.844;2022-10-19T12:29:02;98322.28;;;20.01;74.64
50790;BME280;37287;47.554;7.844;2022-10-19T12:31:33;98314.38;;;20.20;74.13
50790;BME280;37287;47.554;7.844;2022-10-19T12:34:12;98316.97;;;20.10;72.86
50790;BME280;37287;47.554;7.844;2022-10-19T12:39:20;98299.97;;;20.16;74.62
50790;BME280;37287;47.554;7.844;2022-10-19T12:47:24;98285.47;;;19.62;76.54
50790;BME280;37287;47.554;7.844;2022-10-19T12:49:55;98280.50;;;19.37;77.38
50790;BME280;37287;47.554;7.844;2022-10-19T12:52:45;98282.84;;;19.38;77.42
50790;BME280;37287;47.554;7.844;2022-10-19T12:55:29;98276.28;;;19.32;78.60
50790;BME280;37287;47.554;7.844;2022-10-19T12:58:12;98278.72;;;19.47;78.13
50790;BME280;37287;47.554;7.844;2022-10-19T13:00:57;98270.31;;;19.74;76.80
50790;BME280;37287;47.554;7.844;2022-10-19T13:03:32;98277.75;;;19.57;76.51
50790;BME280;37287;47.554;7.844;2022-10-19T13:06:04;98272.00;;;19.68;76.76
50790;BME280;37287;47.554;7.844;2022-10-19T13:08:41;98275.69;;;19.61;76.07
50790;BME280;37287;47.554;7.844;2022-10-19T13:11:12;98270.00;;;19.52;77.72
50790;BME280;37287;47.554;7.844;2022-10-19T13:13:52;98264.97;;;19.67;77.20
50790;BME280;37287;47.554;7.844;2022-10-19T13:21:44;98257.44;;;19.71;77.34
50790;BME280;37287;47.554;7.844;2022-10-19T13:27:19;98253.28;;;19.63;75.83
50790;BME280;37287;47.554;7.844;2022-10-19T13:29:48;98245.28;;;19.52;78.62
50790;BME280;37287;47.554;7.844;2022-10-19T13:43:22;98239.19;;;19.07;79.54
50790;BME280;37287;47.554;7.844;2022-10-19T13:46:25;98246.16;;;18.92;79.77
50790;BME280;37287;47.554;7.844;2022-10-19T13:54:17;98237.91;;;19.12;80.33
50790;BME280;37287;47.554;7.844;2022-10-19T13:59:36;98251.00;;;19.04;80.78
50790;BME280;37287;47.554;7.844;2022-10-19T14:02:44;98239.38;;;19.17;80.44
50790;BME280;37287;47.554;7.844;2022-10-19T14:05:23;98232.03;;;19.30;79.31
50790;BME280;37287;47.554;7.844;2022-10-19T14:10:24;98221.19;;;19.59;78.35
50790;BME280;37287;47.554;7.844;2022-10-19T14:13:04;98220.41;;;19.59;76.71
50790;BME280;37287;47.554;7.844;2022-10-19T14:15:34;98237.38;;;19.54;76.23
50790;BME280;37287;47.554;7.844;2022-10-19T14:18:00;98236.19;;;19.38;79.21
50790;BME280;37287;47.554;7.844;2022-10-19T14:20:33;98243.41;;;19.49;77.04
50790;BME280;37287;47.554;7.844;2022-10-19T14:23:23;98234.34;;;19.32;76.87
50790;BME280;37287;47.554;7.844;2022-10-19T14:26:03;98233.44;;;19.38;78.60
50790;BME280;37287;47.554;7.844;2022-10-19T14:28:31;98238.28;;;19.31;78.25
50790;BME280;37287;47.554;7.844;2022-10-19T14:31:02;98233.28;;;19.25;79.05
50790;BME280;37287;47.554;7.844;2022-10-19T14:33:35;98236.13;;;19.22;79.16
50790;BME280;37287;47.554;7.844;2022-10-19T14:36:06;98230.28;;;19.20;78.97
50790;BME280;37287;47.554;7.844;2022-10-19T14:38:37;98229.03;;;19.24;78.16
50790;BME280;37287;47.554;7.844;2022-10-19T14:41:18;98222.75;;;19.24;78.04
50790;BME280;37287;47.554;7.844;2022-10-19T14:43:46;98224.78;;;19.20;79.51
50790;BME280;37287;47.554;7.844;2022-10-19T14:46:15;98222.28;;;19.09;79.29
50790;BME280;37287;47.554;7.844;2022-10-19T14:48:47;98228.34;;;19.00;79.98
50790;BME280;37287;47.554;7.844;2022-10-19T14:54:29;98225.44;;;18.67;80.41
50790;BME280;37287;47.554;7.844;2022-10-19T14:57:13;98235.25;;;18.45;80.80
50790;BME280;37287;47.554;7.844;2022-10-19T14:59:50;98233.03;;;18.39;81.45
50790;BME280;37287;47.554;7.844;2022-10-19T15:02:37;98219.38;;;18.36;82.02
50790;BME280;37287;47.554;7.844;2022-10-19T15:05:16;98232.63;;;18.17;82.35
50790;BME280;37287;47.554;7.844;2022-10-19T15:07:43;98223.44;;;18.04;83.47
50790;BME280;37287;47.554;7.844;2022-10-19T15:10:19;98225.06;;;18.01;83.70
50790;BME280;37287;47.554;7.844;2022-10-19T15:12:49;98223.44;;;18.04;83.44
50790;BME280;37287;47.554;7.844;2022-10-19T15:15:27;98228.03;;;18.11;83.30
50790;BME280;37287;47.554;7.844;2022-10-19T15:18:03;98218.38;;;18.02;83.49
50790;BME280;37287;47.554;7.844;2022-10-19T15:20:41;98217.19;;;18.03;83.66
50790;BME280;37287;47.554;7.844;2022-10-19T15:23:35;98216.00;;;18.04;83.54
50790;BME280;37287;47.554;7.844;2022-10-19T15:28:48;98202.56;;;17.86;84.32
50790;BME280;37287;47.554;7.844;2022-10-19T15:31:28;98197.50;;;17.85;84.68
50790;BME280;37287;47.554;7.844;2022-10-19T15:33:58;98188.69;;;17.74;85.07